Marchen Maersk — OUIY2 — position and weather

sailwx.info

Track history (hours):
 
Tides and Currents Weather Stations Pressure Air Temp Water Temp Dewpoint Dewpoint Depression Visibility Wind Speed Wind Dir Waves Ship Positions

Marchen Maersk

Last reported at 2017-May-28 23:02 UTC. Time now 2017-May-29 04:01 UTC.
Position N 29°57' E 121°50'.

Length 367 m; draft 14 m.

Type: Ship (hazmat cat A). MMSI: 220594000.

Date/timePositionNaut miles runAvg speedWind from/ knotsBaromVisibWave heightAir tempDewpointWater temp
2017-May-28 23:02N 29°57' E 121°50'0 0.0
2017-May-28 22:53N 29°57' E 121°50'0 0.0
2017-May-28 21:41N 29°57' E 121°50'0 0.0
2017-May-28 21:26N 29°57' E 121°50'0 0.0
2017-May-28 20:50N 29°57' E 121°50'0 0.0
2017-May-28 20:23N 29°57' E 121°50'0 0.0
2017-May-28 19:50N 29°57' E 121°50'0 0.0
2017-May-28 19:17N 29°57' E 121°50'0 0.0
2017-May-28 18:59N 29°57' E 121°50'0 0.0
2017-May-28 18:29N 29°57' E 121°50'0 0.0
2017-May-28 17:59N 29°57' E 121°50'0 0.0
2017-May-28 17:23N 29°57' E 121°50'0 0.0
2017-May-28 16:56N 29°57' E 121°50'0 0.0
2017-May-28 16:29N 29°57' E 121°50'0 0.0
2017-May-28 15:59N 29°57' E 121°50'0 0.0
2017-May-28 15:20N 29°57' E 121°50'0 0.0
2017-May-28 14:59N 29°57' E 121°50'41 3.7
2017-May-28 03:53N 29°41' E 122°35'3 8.2
2017-May-28 03:30N 29°41' E 122°38'2 4.4
2017-May-28 02:59N 29°42' E 122°41'2 4.6
2017-May-28 02:28N 29°41' E 122°44'511.3
2017-May-28 02:00N 29°43' E 122°49'711.9
2017-May-28 01:25N 29°47' E 122°56'511.5
2017-May-28 00:57N 29°51' E 122°59'611.5
2017-May-28 00:27N 29°56' E 123°03'1611.7
2017-May-27 23:03N 30°09' E 123°14'111.8
2017-May-27 22:56N 30°10' E 123°15'711.3
2017-May-27 22:17N 30°17' E 123°19'411.8
2017-May-27 21:57N 30°21' E 123°19'511.5
2017-May-27 21:30N 30°26' E 123°20'611.5
2017-May-27 20:59N 30°32' E 123°19'612.6
2017-May-27 20:30N 30°38' E 123°19'712.8
2017-May-27 19:58N 30°45' E 123°19'1511.9
2017-May-27 18:42N 31°00' E 123°19'311.9
2017-May-27 18:25N 31°04' E 123°19'512.0
2017-May-27 18:00N 31°09' E 123°19'611.6
2017-May-27 17:28N 31°15' E 123°19'611.4
2017-May-27 16:56N 31°21' E 123°19'510.6
2017-May-27 16:30N 31°25' E 123°19'5 9.1
2017-May-27 15:55N 31°31' E 123°19'4 8.8
2017-May-27 15:30N 31°34' E 123°19'4 9.0
2017-May-27 15:00N 31°39' E 123°19'9 9.3
2017-May-27 14:01N 31°48' E 123°19'510.0
2017-May-27 13:31N 31°53' E 123°19'510.2
2017-May-27 13:00N 31°58' E 123°18'610.6
2017-May-27 12:27N 32°04' E 123°19'510.6
2017-May-27 12:00N 32°09' E 123°19'611.1
2017-May-27 11:30N 32°14' E 123°19'811.5
2017-May-27 10:49N 32°22' E 123°19'411.8
2017-May-27 10:30N 32°26' E 123°19'611.5
2017-May-27 10:00N 32°32' E 123°19'511.2
2017-May-27 09:31N 32°37' E 123°19'611.2
2017-May-27 09:00N 32°43' E 123°20'510.5
2017-May-27 08:29N 32°48' E 123°20'6 9.9
2017-May-27 07:53N 32°54' E 123°20'4 9.1
2017-May-27 07:28N 32°58' E 123°20'7 9.0
2017-May-27 06:40N 33°05' E 123°20'1 9.3
2017-May-27 06:30N 33°07' E 123°20'5 9.2
2017-May-27 06:00N 33°11' E 123°19'5 9.2
2017-May-27 05:30N 33°16' E 123°19'5 9.2
2017-May-27 04:56N 33°21' E 123°19'9 9.6
2017-May-27 04:02N 33°30' E 123°19'1 9.7
2017-May-27 03:57N 33°31' E 123°19'915.4
2017-May-27 03:23N 33°39' E 123°19'822.6
2017-May-27 03:00N 33°48' E 123°19'3022.5
2017-May-27 01:41N 34°13' E 122°60'523.4
2017-May-27 01:30N 34°16' E 122°56'1123.5
2017-May-27 01:01N 34°25' E 122°47'1823.3
2017-May-27 00:14N 34°38' E 122°32'2723.4
2017-May-26 23:04N 34°58' E 122°09'523.2
2017-May-26 22:51N 35°01' E 122°05'922.9
2017-May-26 22:29N 35°06' E 121°56'1322.6
2017-May-26 21:54N 35°14' E 121°43'1122.5
2017-May-26 21:26N 35°20' E 121°33'4721.2
2017-May-26 19:12N 35°50' E 120°48'419.9
2017-May-26 19:00N 35°54' E 120°46'917.9
2017-May-26 18:30N 35°58' E 120°36'  
2017-May-24 02:36N 37°17' E 122°58'114.8
2017-May-24 02:30N 37°18' E 122°58'714.9
2017-May-24 02:00N 37°25' E 122°58'814.2
2017-May-24 01:28N 37°33' E 122°56'714.2
2017-May-24 01:00N 37°38' E 122°51'713.8
2017-May-24 00:30N 37°42' E 122°44'713.6
2017-May-24 00:00N 37°46' E 122°36'612.8
2017-May-23 23:30N 37°49' E 122°30'712.3
2017-May-23 22:57N 37°52' E 122°22'612.1
2017-May-23 22:30N 37°55' E 122°16'612.1
2017-May-23 22:00N 37°58' E 122°09'611.8
2017-May-23 21:31N 37°59' E 122°02'510.5
2017-May-23 21:00N 38°02' E 121°56'510.2
2017-May-23 20:31N 38°05' E 121°51'510.5
2017-May-23 20:00N 38°08' E 121°45'510.8
2017-May-23 19:31N 38°11' E 121°40'610.9
2017-May-23 19:00N 38°14' E 121°34'611.1
2017-May-23 18:30N 38°17' E 121°28'611.1
2017-May-23 18:00N 38°19' E 121°21'611.3
2017-May-23 17:31N 38°22' E 121°15'610.9
2017-May-23 16:55N 38°26' E 121°08'510.6
2017-May-23 16:29N 38°28' E 121°03'510.1
2017-May-23 15:59N 38°31' E 120°58'510.0
2017-May-23 15:30N 38°33' E 120°53'510.0
2017-May-23 14:59N 38°34' E 120°46'5 9.8
2017-May-23 14:30N 38°35' E 120°40'10 9.7
2017-May-23 13:30N 38°37' E 120°28'5 9.8
2017-May-23 13:00N 38°37' E 120°22'5 9.9
2017-May-23 12:30N 38°38' E 120°15'5 0.1
2017-May-21 18:54N 38°41' E 120°11'3716.9
2017-May-21 16:43N 38°36' E 120°57'515.3
2017-May-21 16:25N 38°34' E 121°03'616.1
2017-May-21 16:00N 38°31' E 121°10'1019.8
2017-May-21 15:30N 38°26' E 121°21'1020.6
2017-May-21 15:00N 38°21' E 121°33'2120.6
2017-May-21 14:00N 38°10' E 121°55'1020.7
2017-May-21 13:30N 38°05' E 122°06'  
Track history (hours):
 
Tides and Currents Weather Stations Pressure Air Temp Water Temp Dewpoint Dewpoint Depression Visibility Wind Speed Wind Dir Waves Ship Positions

Marchen Maersk

Last reported at 2017-May-28 23:02 UTC. Time now 2017-May-29 04:01 UTC.
Position N 29°57' E 121°50'.

Length 367 m; draft 14 m.

Type: Ship (hazmat cat A). MMSI: 220594000.

Date/timePositionNaut miles runAvg speedWind from/ knotsBaromVisibWave heightAir tempDewpointWater temp
2017-May-28 23:02N 29°57' E 121°50'0 0.0
2017-May-28 22:53N 29°57' E 121°50'0 0.0
2017-May-28 21:41N 29°57' E 121°50'0 0.0
2017-May-28 21:26N 29°57' E 121°50'0 0.0
2017-May-28 20:50N 29°57' E 121°50'0 0.0
2017-May-28 20:23N 29°57' E 121°50'0 0.0
2017-May-28 19:50N 29°57' E 121°50'0 0.0
2017-May-28 19:17N 29°57' E 121°50'0 0.0
2017-May-28 18:59N 29°57' E 121°50'0 0.0
2017-May-28 18:29N 29°57' E 121°50'0 0.0
2017-May-28 17:59N 29°57' E 121°50'0 0.0
2017-May-28 17:23N 29°57' E 121°50'0 0.0
2017-May-28 16:56N 29°57' E 121°50'0 0.0
2017-May-28 16:29N 29°57' E 121°50'0 0.0
2017-May-28 15:59N 29°57' E 121°50'0 0.0
2017-May-28 15:20N 29°57' E 121°50'0 0.0
2017-May-28 14:59N 29°57' E 121°50'41 3.7
2017-May-28 03:53N 29°41' E 122°35'3 8.2
2017-May-28 03:30N 29°41' E 122°38'2 4.4
2017-May-28 02:59N 29°42' E 122°41'2 4.6
2017-May-28 02:28N 29°41' E 122°44'511.3
2017-May-28 02:00N 29°43' E 122°49'711.9
2017-May-28 01:25N 29°47' E 122°56'511.5
2017-May-28 00:57N 29°51' E 122°59'611.5
2017-May-28 00:27N 29°56' E 123°03'1611.7
2017-May-27 23:03N 30°09' E 123°14'111.8
2017-May-27 22:56N 30°10' E 123°15'711.3
2017-May-27 22:17N 30°17' E 123°19'411.8
2017-May-27 21:57N 30°21' E 123°19'511.5
2017-May-27 21:30N 30°26' E 123°20'611.5
2017-May-27 20:59N 30°32' E 123°19'612.6
2017-May-27 20:30N 30°38' E 123°19'712.8
2017-May-27 19:58N 30°45' E 123°19'1511.9
2017-May-27 18:42N 31°00' E 123°19'311.9
2017-May-27 18:25N 31°04' E 123°19'512.0
2017-May-27 18:00N 31°09' E 123°19'611.6
2017-May-27 17:28N 31°15' E 123°19'611.4
2017-May-27 16:56N 31°21' E 123°19'510.6
2017-May-27 16:30N 31°25' E 123°19'5 9.1
2017-May-27 15:55N 31°31' E 123°19'4 8.8
2017-May-27 15:30N 31°34' E 123°19'4 9.0
2017-May-27 15:00N 31°39' E 123°19'9 9.3
2017-May-27 14:01N 31°48' E 123°19'510.0
2017-May-27 13:31N 31°53' E 123°19'510.2
2017-May-27 13:00N 31°58' E 123°18'610.6
2017-May-27 12:27N 32°04' E 123°19'510.6
2017-May-27 12:00N 32°09' E 123°19'611.1
2017-May-27 11:30N 32°14' E 123°19'811.5
2017-May-27 10:49N 32°22' E 123°19'411.8
2017-May-27 10:30N 32°26' E 123°19'611.5
2017-May-27 10:00N 32°32' E 123°19'511.2
2017-May-27 09:31N 32°37' E 123°19'611.2
2017-May-27 09:00N 32°43' E 123°20'510.5
2017-May-27 08:29N 32°48' E 123°20'6 9.9
2017-May-27 07:53N 32°54' E 123°20'4 9.1
2017-May-27 07:28N 32°58' E 123°20'7 9.0
2017-May-27 06:40N 33°05' E 123°20'1 9.3
2017-May-27 06:30N 33°07' E 123°20'5 9.2
2017-May-27 06:00N 33°11' E 123°19'5 9.2
2017-May-27 05:30N 33°16' E 123°19'5 9.2
2017-May-27 04:56N 33°21' E 123°19'9 9.6
2017-May-27 04:02N 33°30' E 123°19'1 9.7
2017-May-27 03:57N 33°31' E 123°19'915.4
2017-May-27 03:23N 33°39' E 123°19'822.6
2017-May-27 03:00N 33°48' E 123°19'3022.5
2017-May-27 01:41N 34°13' E 122°60'523.4
2017-May-27 01:30N 34°16' E 122°56'1123.5
2017-May-27 01:01N 34°25' E 122°47'1823.3
2017-May-27 00:14N 34°38' E 122°32'2723.4
2017-May-26 23:04N 34°58' E 122°09'523.2
2017-May-26 22:51N 35°01' E 122°05'922.9
2017-May-26 22:29N 35°06' E 121°56'1322.6
2017-May-26 21:54N 35°14' E 121°43'1122.5
2017-May-26 21:26N 35°20' E 121°33'4721.2
2017-May-26 19:12N 35°50' E 120°48'419.9
2017-May-26 19:00N 35°54' E 120°46'917.9
2017-May-26 18:30N 35°58' E 120°36'  
2017-May-24 02:36N 37°17' E 122°58'114.8
2017-May-24 02:30N 37°18' E 122°58'714.9
2017-May-24 02:00N 37°25' E 122°58'814.2
2017-May-24 01:28N 37°33' E 122°56'714.2
2017-May-24 01:00N 37°38' E 122°51'713.8
2017-May-24 00:30N 37°42' E 122°44'713.6
2017-May-24 00:00N 37°46' E 122°36'612.8
2017-May-23 23:30N 37°49' E 122°30'712.3
2017-May-23 22:57N 37°52' E 122°22'612.1
2017-May-23 22:30N 37°55' E 122°16'612.1
2017-May-23 22:00N 37°58' E 122°09'611.8
2017-May-23 21:31N 37°59' E 122°02'510.5
2017-May-23 21:00N 38°02' E 121°56'510.2
2017-May-23 20:31N 38°05' E 121°51'510.5
2017-May-23 20:00N 38°08' E 121°45'510.8
2017-May-23 19:31N 38°11' E 121°40'610.9
2017-May-23 19:00N 38°14' E 121°34'611.1
2017-May-23 18:30N 38°17' E 121°28'611.1
2017-May-23 18:00N 38°19' E 121°21'611.3
2017-May-23 17:31N 38°22' E 121°15'610.9
2017-May-23 16:55N 38°26' E 121°08'510.6
2017-May-23 16:29N 38°28' E 121°03'510.1
2017-May-23 15:59N 38°31' E 120°58'510.0
2017-May-23 15:30N 38°33' E 120°53'510.0
2017-May-23 14:59N 38°34' E 120°46'5 9.8
2017-May-23 14:30N 38°35' E 120°40'10 9.7
2017-May-23 13:30N 38°37' E 120°28'5 9.8
2017-May-23 13:00N 38°37' E 120°22'5 9.9
2017-May-23 12:30N 38°38' E 120°15'5 0.1
2017-May-21 18:54N 38°41' E 120°11'3716.9
2017-May-21 16:43N 38°36' E 120°57'515.3
2017-May-21 16:25N 38°34' E 121°03'616.1
2017-May-21 16:00N 38°31' E 121°10'1019.8
2017-May-21 15:30N 38°26' E 121°21'1020.6
2017-May-21 15:00N 38°21' E 121°33'2120.6
2017-May-21 14:00N 38°10' E 121°55'1020.7
2017-May-21 13:30N 38°05' E 122°06'  

Dump ship's entire track history